sensor_id;sensor_type;location;lat;lon;timestamp;temperature;humidity
16627;DHT22;8427;52.204;7.202;2023-11-19T00:00:32;10.30;95.90
16627;DHT22;8427;52.204;7.202;2023-11-19T00:03:00;10.30;95.90
16627;DHT22;8427;52.204;7.202;2023-11-19T00:05:29;10.40;96.00
16627;DHT22;8427;52.204;7.202;2023-11-19T00:07:57;10.40;96.00
16627;DHT22;8427;52.204;7.202;2023-11-19T00:10:24;10.30;96.00
16627;DHT22;8427;52.204;7.202;2023-11-19T00:12:54;10.40;96.00
16627;DHT22;8427;52.204;7.202;2023-11-19T00:15:23;10.40;96.10
16627;DHT22;8427;52.204;7.202;2023-11-19T00:17:52;10.40;96.10
16627;DHT22;8427;52.204;7.202;2023-11-19T00:20:20;10.40;96.10
16627;DHT22;8427;52.204;7.202;2023-11-19T00:22:49;10.60;96.00
16627;DHT22;8427;52.204;7.202;2023-11-19T00:25:19;10.50;96.00
16627;DHT22;8427;52.204;7.202;2023-11-19T00:27:49;10.60;96.00
16627;DHT22;8427;52.204;7.202;2023-11-19T00:30:19;10.70;96.10
16627;DHT22;8427;52.204;7.202;2023-11-19T00:32:47;10.50;96.10
16627;DHT22;8427;52.204;7.202;2023-11-19T00:35:15;10.60;96.00
16627;DHT22;8427;52.204;7.202;2023-11-19T00:37:43;10.60;96.00
16627;DHT22;8427;52.204;7.202;2023-11-19T00:40:12;10.50;95.90
16627;DHT22;8427;52.204;7.202;2023-11-19T00:42:42;10.60;96.00
16627;DHT22;8427;52.204;7.202;2023-11-19T00:45:10;10.60;96.10
16627;DHT22;8427;52.204;7.202;2023-11-19T00:47:41;10.60;96.00
16627;DHT22;8427;52.204;7.202;2023-11-19T00:50:10;10.80;96.10
16627;DHT22;8427;52.204;7.202;2023-11-19T00:52:38;10.80;96.20
16627;DHT22;8427;52.204;7.202;2023-11-19T00:55:07;10.80;96.10
16627;DHT22;8427;52.204;7.202;2023-11-19T00:57:35;10.80;96.10
16627;DHT22;8427;52.204;7.202;2023-11-19T01:00:04;10.80;96.10
16627;DHT22;8427;52.204;7.202;2023-11-19T01:02:43;10.90;96.20
16627;DHT22;8427;52.204;7.202;2023-11-19T01:05:11;10.90;96.20
16627;DHT22;8427;52.204;7.202;2023-11-19T01:07:40;11.00;96.20
16627;DHT22;8427;52.204;7.202;2023-11-19T01:10:08;11.00;96.30
16627;DHT22;8427;52.204;7.202;2023-11-19T01:12:37;11.10;96.30
16627;DHT22;8427;52.204;7.202;2023-11-19T01:15:05;11.20;96.30
16627;DHT22;8427;52.204;7.202;2023-11-19T01:17:33;11.10;96.10
16627;DHT22;8427;52.204;7.202;2023-11-19T01:20:04;11.20;96.20
16627;DHT22;8427;52.204;7.202;2023-11-19T01:22:33;11.20;96.10
16627;DHT22;8427;52.204;7.202;2023-11-19T01:25:02;11.30;96.30
16627;DHT22;8427;52.204;7.202;2023-11-19T01:27:32;11.30;96.20
16627;DHT22;8427;52.204;7.202;2023-11-19T01:30:01;11.30;96.20
16627;DHT22;8427;52.204;7.202;2023-11-19T01:32:30;11.40;96.20
16627;DHT22;8427;52.204;7.202;2023-11-19T01:34:58;11.40;96.30
16627;DHT22;8427;52.204;7.202;2023-11-19T01:37:27;11.50;96.20
16627;DHT22;8427;52.204;7.202;2023-11-19T01:39:55;11.40;96.00
16627;DHT22;8427;52.204;7.202;2023-11-19T01:42:25;11.60;96.10
16627;DHT22;8427;52.204;7.202;2023-11-19T01:44:58;11.60;96.10
16627;DHT22;8427;52.204;7.202;2023-11-19T01:47:27;11.70;96.10
16627;DHT22;8427;52.204;7.202;2023-11-19T01:49:56;11.60;96.00
16627;DHT22;8427;52.204;7.202;2023-11-19T01:52:26;11.70;96.00
16627;DHT22;8427;52.204;7.202;2023-11-19T01:54:54;11.70;95.90
16627;DHT22;8427;52.204;7.202;2023-11-19T01:57:23;11.80;96.00
16627;DHT22;8427;52.204;7.202;2023-11-19T01:59:52;11.90;95.90
16627;DHT22;8427;52.204;7.202;2023-11-19T02:02:20;11.90;96.00
16627;DHT22;8427;52.204;7.202;2023-11-19T02:04:49;11.90;96.00
16627;DHT22;8427;52.204;7.202;2023-11-19T02:07:18;11.90;95.80
16627;DHT22;8427;52.204;7.202;2023-11-19T02:09:48;11.90;95.90
16627;DHT22;8427;52.204;7.202;2023-11-19T02:12:16;11.90;95.80
16627;DHT22;8427;52.204;7.202;2023-11-19T02:14:44;11.80;95.70
16627;DHT22;8427;52.204;7.202;2023-11-19T02:17:25;11.90;95.70
16627;DHT22;8427;52.204;7.202;2023-11-19T02:19:53;11.90;95.70
16627;DHT22;8427;52.204;7.202;2023-11-19T02:22:22;12.00;95.80
16627;DHT22;8427;52.204;7.202;2023-11-19T02:24:57;12.20;95.80
16627;DHT22;8427;52.204;7.202;2023-11-19T02:27:37;11.90;95.60
16627;DHT22;8427;52.204;7.202;2023-11-19T02:30:07;12.00;95.70
16627;DHT22;8427;52.204;7.202;2023-11-19T02:32:35;12.20;95.60
16627;DHT22;8427;52.204;7.202;2023-11-19T02:35:06;12.00;95.70
16627;DHT22;8427;52.204;7.202;2023-11-19T02:37:35;12.20;95.30
16627;DHT22;8427;52.204;7.202;2023-11-19T02:40:04;12.20;95.50
16627;DHT22;8427;52.204;7.202;2023-11-19T02:42:35;12.20;95.30
16627;DHT22;8427;52.204;7.202;2023-11-19T02:45:05;12.30;95.30
16627;DHT22;8427;52.204;7.202;2023-11-19T02:47:34;12.30;95.30
16627;DHT22;8427;52.204;7.202;2023-11-19T02:50:02;12.40;95.30
16627;DHT22;8427;52.204;7.202;2023-11-19T02:52:30;12.30;95.10
16627;DHT22;8427;52.204;7.202;2023-11-19T02:55:01;12.20;95.10
16627;DHT22;8427;52.204;7.202;2023-11-19T02:57:31;12.30;95.20
16627;DHT22;8427;52.204;7.202;2023-11-19T03:00:00;12.30;95.10
16627;DHT22;8427;52.204;7.202;2023-11-19T03:02:32;12.20;95.20
16627;DHT22;8427;52.204;7.202;2023-11-19T03:05:10;12.40;95.10
16627;DHT22;8427;52.204;7.202;2023-11-19T03:07:38;12.40;95.00
16627;DHT22;8427;52.204;7.202;2023-11-19T03:10:07;12.40;94.90
16627;DHT22;8427;52.204;7.202;2023-11-19T03:12:35;12.40;94.90
16627;DHT22;8427;52.204;7.202;2023-11-19T03:15:04;12.30;94.90
16627;DHT22;8427;52.204;7.202;2023-11-19T03:17:33;12.40;94.80
16627;DHT22;8427;52.204;7.202;2023-11-19T03:20:01;12.30;94.70
16627;DHT22;8427;52.204;7.202;2023-11-19T03:22:29;12.50;94.80
16627;DHT22;8427;52.204;7.202;2023-11-19T03:24:57;12.40;94.90
16627;DHT22;8427;52.204;7.202;2023-11-19T03:27:25;12.30;94.70
16627;DHT22;8427;52.204;7.202;2023-11-19T03:29:53;12.40;94.80
16627;DHT22;8427;52.204;7.202;2023-11-19T03:32:21;12.40;94.60
16627;DHT22;8427;52.204;7.202;2023-11-19T03:34:50;12.40;94.50
16627;DHT22;8427;52.204;7.202;2023-11-19T03:37:18;12.30;94.60
16627;DHT22;8427;52.204;7.202;2023-11-19T03:39:46;12.40;94.50
16627;DHT22;8427;52.204;7.202;2023-11-19T03:42:14;12.30;94.30
16627;DHT22;8427;52.204;7.202;2023-11-19T03:44:41;12.20;94.30
16627;DHT22;8427;52.204;7.202;2023-11-19T03:47:09;12.10;94.30
16627;DHT22;8427;52.204;7.202;2023-11-19T03:49:37;12.20;94.40
16627;DHT22;8427;52.204;7.202;2023-11-19T03:52:06;12.10;94.50
16627;DHT22;8427;52.204;7.202;2023-11-19T03:54:45;12.20;94.40
16627;DHT22;8427;52.204;7.202;2023-11-19T03:57:13;12.20;94.20
16627;DHT22;8427;52.204;7.202;2023-11-19T03:59:42;12.00;94.10
16627;DHT22;8427;52.204;7.202;2023-11-19T04:02:10;12.20;93.90
16627;DHT22;8427;52.204;7.202;2023-11-19T04:04:38;12.00;93.70
16627;DHT22;8427;52.204;7.202;2023-11-19T04:07:08;12.00;93.70
16627;DHT22;8427;52.204;7.202;2023-11-19T04:09:35;11.90;94.00
16627;DHT22;8427;52.204;7.202;2023-11-19T04:12:04;12.00;93.80
16627;DHT22;8427;52.204;7.202;2023-11-19T04:14:33;11.80;93.60
16627;DHT22;8427;52.204;7.202;2023-11-19T04:17:01;11.90;93.70
16627;DHT22;8427;52.204;7.202;2023-11-19T04:19:29;11.90;93.70
16627;DHT22;8427;52.204;7.202;2023-11-19T04:21:59;11.80;93.50
16627;DHT22;8427;52.204;7.202;2023-11-19T04:24:30;11.80;93.50
16627;DHT22;8427;52.204;7.202;2023-11-19T04:26:58;11.80;93.30
16627;DHT22;8427;52.204;7.202;2023-11-19T04:29:26;11.70;93.10
16627;DHT22;8427;52.204;7.202;2023-11-19T04:31:54;11.80;93.20
16627;DHT22;8427;52.204;7.202;2023-11-19T04:34:21;11.70;93.10
16627;DHT22;8427;52.204;7.202;2023-11-19T04:36:49;11.70;93.00
16627;DHT22;8427;52.204;7.202;2023-11-19T04:39:17;11.90;92.80
16627;DHT22;8427;52.204;7.202;2023-11-19T04:41:47;11.80;92.80
16627;DHT22;8427;52.204;7.202;2023-11-19T04:44:15;11.80;92.60
16627;DHT22;8427;52.204;7.202;2023-11-19T04:46:44;11.90;92.40
16627;DHT22;8427;52.204;7.202;2023-11-19T04:49:13;11.80;91.80
16627;DHT22;8427;52.204;7.202;2023-11-19T04:51:41;11.80;91.40
16627;DHT22;8427;52.204;7.202;2023-11-19T04:54:10;11.80;91.30
16627;DHT22;8427;52.204;7.202;2023-11-19T04:56:38;11.60;91.40
16627;DHT22;8427;52.204;7.202;2023-11-19T04:59:08;11.50;91.40
16627;DHT22;8427;52.204;7.202;2023-11-19T05:01:35;11.50;91.70
16627;DHT22;8427;52.204;7.202;2023-11-19T05:04:03;11.40;91.70
16627;DHT22;8427;52.204;7.202;2023-11-19T05:06:32;11.30;91.70
16627;DHT22;8427;52.204;7.202;2023-11-19T05:09:00;11.30;91.70
16627;DHT22;8427;52.204;7.202;2023-11-19T05:11:32;11.30;91.70
16627;DHT22;8427;52.204;7.202;2023-11-19T05:14:02;11.30;91.60
16627;DHT22;8427;52.204;7.202;2023-11-19T05:16:32;11.20;91.60
16627;DHT22;8427;52.204;7.202;2023-11-19T05:19:02;11.20;91.60
16627;DHT22;8427;52.204;7.202;2023-11-19T05:21:30;11.30;91.50
16627;DHT22;8427;52.204;7.202;2023-11-19T05:23:58;11.20;91.40
16627;DHT22;8427;52.204;7.202;2023-11-19T05:26:26;11.10;91.30
16627;DHT22;8427;52.204;7.202;2023-11-19T05:28:54;11.10;91.30
16627;DHT22;8427;52.204;7.202;2023-11-19T05:31:22;11.10;91.00
16627;DHT22;8427;52.204;7.202;2023-11-19T05:33:51;11.10;91.10
16627;DHT22;8427;52.204;7.202;2023-11-19T05:36:19;11.20;91.10
16627;DHT22;8427;52.204;7.202;2023-11-19T05:38:47;11.20;90.90
16627;DHT22;8427;52.204;7.202;2023-11-19T05:41:15;11.20;90.70
16627;DHT22;8427;52.204;7.202;2023-11-19T05:43:43;11.20;90.30
16627;DHT22;8427;52.204;7.202;2023-11-19T05:46:11;11.30;89.90
16627;DHT22;8427;52.204;7.202;2023-11-19T05:48:42;11.40;89.80
16627;DHT22;8427;52.204;7.202;2023-11-19T05:51:13;11.30;89.10
16627;DHT22;8427;52.204;7.202;2023-11-19T05:53:41;11.40;89.10
16627;DHT22;8427;52.204;7.202;2023-11-19T05:56:09;11.40;88.80
16627;DHT22;8427;52.204;7.202;2023-11-19T05:58:37;11.30;89.00
16627;DHT22;8427;52.204;7.202;2023-11-19T06:01:06;11.30;89.10
16627;DHT22;8427;52.204;7.202;2023-11-19T06:03:35;11.20;89.10
16627;DHT22;8427;52.204;7.202;2023-11-19T06:06:04;11.20;89.30
16627;DHT22;8427;52.204;7.202;2023-11-19T06:08:34;11.20;89.10
16627;DHT22;8427;52.204;7.202;2023-11-19T06:11:01;11.30;89.00
16627;DHT22;8427;52.204;7.202;2023-11-19T06:13:29;11.30;88.60
16627;DHT22;8427;52.204;7.202;2023-11-19T06:15:58;11.30;88.80
16627;DHT22;8427;52.204;7.202;2023-11-19T06:18:26;11.30;88.90
16627;DHT22;8427;52.204;7.202;2023-11-19T06:20:54;11.30;89.10
16627;DHT22;8427;52.204;7.202;2023-11-19T06:23:22;11.30;89.00
16627;DHT22;8427;52.204;7.202;2023-11-19T06:25:51;11.40;89.00
16627;DHT22;8427;52.204;7.202;2023-11-19T06:28:19;11.40;89.00
16627;DHT22;8427;52.204;7.202;2023-11-19T06:30:47;11.30;88.50
16627;DHT22;8427;52.204;7.202;2023-11-19T06:33:15;11.30;88.50
16627;DHT22;8427;52.204;7.202;2023-11-19T06:35:43;11.30;88.50
16627;DHT22;8427;52.204;7.202;2023-11-19T06:38:11;11.40;88.20
16627;DHT22;8427;52.204;7.202;2023-11-19T06:40:39;11.40;88.10
16627;DHT22;8427;52.204;7.202;2023-11-19T06:43:09;11.30;87.90
16627;DHT22;8427;52.204;7.202;2023-11-19T06:45:37;11.40;88.20
16627;DHT22;8427;52.204;7.202;2023-11-19T06:48:05;11.40;88.00
16627;DHT22;8427;52.204;7.202;2023-11-19T06:50:34;11.40;87.90
16627;DHT22;8427;52.204;7.202;2023-11-19T06:53:01;11.30;88.10
16627;DHT22;8427;52.204;7.202;2023-11-19T06:58:08;11.40;87.90
16627;DHT22;8427;52.204;7.202;2023-11-19T07:00:36;11.30;88.20
16627;DHT22;8427;52.204;7.202;2023-11-19T07:03:04;11.30;88.20
16627;DHT22;8427;52.204;7.202;2023-11-19T07:05:36;11.30;88.40
16627;DHT22;8427;52.204;7.202;2023-11-19T07:08:06;11.20;88.30
16627;DHT22;8427;52.204;7.202;2023-11-19T07:10:35;11.20;88.30
16627;DHT22;8427;52.204;7.202;2023-11-19T07:13:03;11.30;88.30
16627;DHT22;8427;52.204;7.202;2023-11-19T07:15:33;11.20;88.60
16627;DHT22;8427;52.204;7.202;2023-11-19T07:18:01;11.20;88.40
16627;DHT22;8427;52.204;7.202;2023-11-19T07:20:29;11.20;88.30
16627;DHT22;8427;52.204;7.202;2023-11-19T07:22:59;11.30;88.00
16627;DHT22;8427;52.204;7.202;2023-11-19T07:25:27;11.30;88.10
16627;DHT22;8427;52.204;7.202;2023-11-19T07:27:55;11.30;87.90
16627;DHT22;8427;52.204;7.202;2023-11-19T07:30:23;11.40;87.70
16627;DHT22;8427;52.204;7.202;2023-11-19T07:32:53;11.20;87.60
16627;DHT22;8427;52.204;7.202;2023-11-19T07:35:20;11.40;87.60
16627;DHT22;8427;52.204;7.202;2023-11-19T07:37:47;11.30;87.80
16627;DHT22;8427;52.204;7.202;2023-11-19T07:40:17;11.30;87.60
16627;DHT22;8427;52.204;7.202;2023-11-19T07:42:45;11.30;87.50
16627;DHT22;8427;52.204;7.202;2023-11-19T07:45:13;11.30;87.70
16627;DHT22;8427;52.204;7.202;2023-11-19T07:47:41;11.30;87.60
16627;DHT22;8427;52.204;7.202;2023-11-19T07:50:11;11.30;87.50
16627;DHT22;8427;52.204;7.202;2023-11-19T07:52:40;11.20;87.50
16627;DHT22;8427;52.204;7.202;2023-11-19T07:55:08;11.20;87.20
16627;DHT22;8427;52.204;7.202;2023-11-19T07:57:36;11.30;87.30
16627;DHT22;8427;52.204;7.202;2023-11-19T08:00:05;11.40;87.20
16627;DHT22;8427;52.204;7.202;2023-11-19T08:02:35;11.40;87.00
16627;DHT22;8427;52.204;7.202;2023-11-19T08:05:03;11.40;86.90
16627;DHT22;8427;52.204;7.202;2023-11-19T08:07:33;11.30;87.00
16627;DHT22;8427;52.204;7.202;2023-11-19T08:10:01;11.50;87.00
16627;DHT22;8427;52.204;7.202;2023-11-19T08:12:29;11.50;86.70
16627;DHT22;8427;52.204;7.202;2023-11-19T08:14:57;11.50;86.50
16627;DHT22;8427;52.204;7.202;2023-11-19T08:17:26;11.60;86.30
16627;DHT22;8427;52.204;7.202;2023-11-19T08:19:53;11.50;86.20
16627;DHT22;8427;52.204;7.202;2023-11-19T08:22:21;11.70;86.30
16627;DHT22;8427;52.204;7.202;2023-11-19T08:24:51;11.60;86.60
16627;DHT22;8427;52.204;7.202;2023-11-19T08:27:19;11.60;86.10
16627;DHT22;8427;52.204;7.202;2023-11-19T08:29:53;11.80;85.90
16627;DHT22;8427;52.204;7.202;2023-11-19T08:32:23;11.90;85.90
16627;DHT22;8427;52.204;7.202;2023-11-19T08:34:51;11.80;86.00
16627;DHT22;8427;52.204;7.202;2023-11-19T08:37:19;11.80;85.30
16627;DHT22;8427;52.204;7.202;2023-11-19T08:39:47;12.00;85.40
16627;DHT22;8427;52.204;7.202;2023-11-19T08:42:17;12.00;85.10
16627;DHT22;8427;52.204;7.202;2023-11-19T08:44:48;12.00;84.80
16627;DHT22;8427;52.204;7.202;2023-11-19T08:47:17;12.20;84.90
16627;DHT22;8427;52.204;7.202;2023-11-19T08:49:45;12.10;84.70
16627;DHT22;8427;52.204;7.202;2023-11-19T08:52:29;12.00;84.80
16627;DHT22;8427;52.204;7.202;2023-11-19T08:55:01;12.00;84.90
16627;DHT22;8427;52.204;7.202;2023-11-19T08:57:30;12.00;85.10
16627;DHT22;8427;52.204;7.202;2023-11-19T08:59:58;12.10;85.00
16627;DHT22;8427;52.204;7.202;2023-11-19T09:02:26;12.00;84.90
16627;DHT22;8427;52.204;7.202;2023-11-19T09:04:54;12.20;84.90
16627;DHT22;8427;52.204;7.202;2023-11-19T09:07:22;12.00;84.90
16627;DHT22;8427;52.204;7.202;2023-11-19T09:09:50;12.20;84.70
16627;DHT22;8427;52.204;7.202;2023-11-19T09:12:18;12.30;84.90
16627;DHT22;8427;52.204;7.202;2023-11-19T09:14:47;12.10;84.50
16627;DHT22;8427;52.204;7.202;2023-11-19T09:17:16;12.20;84.80
16627;DHT22;8427;52.204;7.202;2023-11-19T09:19:44;12.10;84.90
16627;DHT22;8427;52.204;7.202;2023-11-19T09:22:12;12.00;84.80
16627;DHT22;8427;52.204;7.202;2023-11-19T09:24:41;12.10;85.10
16627;DHT22;8427;52.204;7.202;2023-11-19T09:27:10;12.40;84.80
16627;DHT22;8427;52.204;7.202;2023-11-19T09:29:38;12.30;84.90
16627;DHT22;8427;52.204;7.202;2023-11-19T09:32:08;12.40;84.50
16627;DHT22;8427;52.204;7.202;2023-11-19T09:34:36;12.50;84.00
16627;DHT22;8427;52.204;7.202;2023-11-19T09:37:04;12.50;83.90
16627;DHT22;8427;52.204;7.202;2023-11-19T09:39:47;12.60;83.60
16627;DHT22;8427;52.204;7.202;2023-11-19T09:42:15;12.50;83.50
16627;DHT22;8427;52.204;7.202;2023-11-19T09:44:45;12.70;83.50
16627;DHT22;8427;52.204;7.202;2023-11-19T09:47:15;12.70;83.30
16627;DHT22;8427;52.204;7.202;2023-11-19T09:49:45;12.70;82.90
16627;DHT22;8427;52.204;7.202;2023-11-19T09:52:16;12.60;83.00
16627;DHT22;8427;52.204;7.202;2023-11-19T09:54:44;12.70;83.40
16627;DHT22;8427;52.204;7.202;2023-11-19T09:57:14;12.70;83.30
16627;DHT22;8427;52.204;7.202;2023-11-19T09:59:45;12.70;83.30
16627;DHT22;8427;52.204;7.202;2023-11-19T10:02:15;12.50;83.50
16627;DHT22;8427;52.204;7.202;2023-11-19T10:04:45;12.50;83.60
16627;DHT22;8427;52.204;7.202;2023-11-19T10:07:14;12.50;83.80
16627;DHT22;8427;52.204;7.202;2023-11-19T10:09:42;12.70;84.00
16627;DHT22;8427;52.204;7.202;2023-11-19T10:12:10;12.70;83.50
16627;DHT22;8427;52.204;7.202;2023-11-19T10:14:40;12.70;83.20
16627;DHT22;8427;52.204;7.202;2023-11-19T10:17:11;12.70;83.10
16627;DHT22;8427;52.204;7.202;2023-11-19T10:19:41;12.60;83.20
16627;DHT22;8427;52.204;7.202;2023-11-19T10:22:10;12.60;83.40
16627;DHT22;8427;52.204;7.202;2023-11-19T10:24:39;12.50;83.50
16627;DHT22;8427;52.204;7.202;2023-11-19T10:27:15;12.50;83.60
16627;DHT22;8427;52.204;7.202;2023-11-19T10:29:45;12.50;83.80
16627;DHT22;8427;52.204;7.202;2023-11-19T10:32:15;12.50;83.80
16627;DHT22;8427;52.204;7.202;2023-11-19T10:35:04;12.40;84.10
16627;DHT22;8427;52.204;7.202;2023-11-19T10:37:35;12.40;84.00
16627;DHT22;8427;52.204;7.202;2023-11-19T10:40:05;12.40;83.90
16627;DHT22;8427;52.204;7.202;2023-11-19T10:42:36;12.50;83.60
16627;DHT22;8427;52.204;7.202;2023-11-19T10:45:22;12.60;83.80
16627;DHT22;8427;52.204;7.202;2023-11-19T10:47:51;12.60;83.40
16627;DHT22;8427;52.204;7.202;2023-11-19T10:50:23;12.60;82.90
16627;DHT22;8427;52.204;7.202;2023-11-19T10:52:51;12.70;82.70
16627;DHT22;8427;52.204;7.202;2023-11-19T10:55:26;12.90;83.00
16627;DHT22;8427;52.204;7.202;2023-11-19T10:57:59;12.90;82.40
16627;DHT22;8427;52.204;7.202;2023-11-19T11:00:29;12.90;81.90
16627;DHT22;8427;52.204;7.202;2023-11-19T11:03:00;13.00;81.50
16627;DHT22;8427;52.204;7.202;2023-11-19T11:05:32;13.10;81.20
16627;DHT22;8427;52.204;7.202;2023-11-19T11:08:01;13.10;81.10
16627;DHT22;8427;52.204;7.202;2023-11-19T11:10:30;13.20;81.10
16627;DHT22;8427;52.204;7.202;2023-11-19T11:13:03;13.20;81.20
16627;DHT22;8427;52.204;7.202;2023-11-19T11:15:33;13.30;80.90
16627;DHT22;8427;52.204;7.202;2023-11-19T11:18:02;13.30;81.10
16627;DHT22;8427;52.204;7.202;2023-11-19T11:20:33;13.30;80.70
16627;DHT22;8427;52.204;7.202;2023-11-19T11:23:36;13.40;80.70
16627;DHT22;8427;52.204;7.202;2023-11-19T11:29:13;13.40;80.20
16627;DHT22;8427;52.204;7.202;2023-11-19T11:31:51;13.30;80.30
16627;DHT22;8427;52.204;7.202;2023-11-19T11:34:51;13.30;80.60
16627;DHT22;8427;52.204;7.202;2023-11-19T11:37:30;13.20;80.70
16627;DHT22;8427;52.204;7.202;2023-11-19T11:40:01;13.30;80.60
16627;DHT22;8427;52.204;7.202;2023-11-19T11:42:35;13.30;80.80
16627;DHT22;8427;52.204;7.202;2023-11-19T11:45:05;13.40;80.30
16627;DHT22;8427;52.204;7.202;2023-11-19T11:50:53;13.50;80.20
16627;DHT22;8427;52.204;7.202;2023-11-19T11:53:36;13.50;80.00
16627;DHT22;8427;52.204;7.202;2023-11-19T11:56:07;13.50;80.10
16627;DHT22;8427;52.204;7.202;2023-11-19T11:58:40;13.50;79.80
16627;DHT22;8427;52.204;7.202;2023-11-19T12:01:15;13.50;80.10
16627;DHT22;8427;52.204;7.202;2023-11-19T12:03:51;13.70;80.30
16627;DHT22;8427;52.204;7.202;2023-11-19T12:06:21;13.70;80.30
16627;DHT22;8427;52.204;7.202;2023-11-19T12:08:52;13.70;79.90
16627;DHT22;8427;52.204;7.202;2023-11-19T12:11:24;13.70;79.40
16627;DHT22;8427;52.204;7.202;2023-11-19T12:13:55;13.50;79.60
16627;DHT22;8427;52.204;7.202;2023-11-19T12:16:26;13.50;80.00
16627;DHT22;8427;52.204;7.202;2023-11-19T12:18:56;13.60;79.90
16627;DHT22;8427;52.204;7.202;2023-11-19T12:21:28;13.50;79.50
16627;DHT22;8427;52.204;7.202;2023-11-19T12:24:00;13.50;79.60
16627;DHT22;8427;52.204;7.202;2023-11-19T12:26:36;13.40;80.20
16627;DHT22;8427;52.204;7.202;2023-11-19T12:29:04;13.40;80.50
16627;DHT22;8427;52.204;7.202;2023-11-19T12:31:36;13.50;80.50
16627;DHT22;8427;52.204;7.202;2023-11-19T12:34:06;13.50;79.70
16627;DHT22;8427;52.204;7.202;2023-11-19T12:36:42;13.60;79.70
16627;DHT22;8427;52.204;7.202;2023-11-19T12:39:22;13.60;79.40
16627;DHT22;8427;52.204;7.202;2023-11-19T12:41:52;13.70;79.00
16627;DHT22;8427;52.204;7.202;2023-11-19T12:44:26;13.90;79.40
16627;DHT22;8427;52.204;7.202;2023-11-19T12:47:01;13.80;79.70
16627;DHT22;8427;52.204;7.202;2023-11-19T12:49:29;13.70;80.80
16627;DHT22;8427;52.204;7.202;2023-11-19T12:51:58;13.50;81.30
16627;DHT22;8427;52.204;7.202;2023-11-19T12:54:37;13.50;82.10
16627;DHT22;8427;52.204;7.202;2023-11-19T12:57:08;13.40;82.10
16627;DHT22;8427;52.204;7.202;2023-11-19T12:59:36;13.30;82.00
16627;DHT22;8427;52.204;7.202;2023-11-19T13:02:04;13.30;82.70
16627;DHT22;8427;52.204;7.202;2023-11-19T13:04:33;13.20;82.00
16627;DHT22;8427;52.204;7.202;2023-11-19T13:07:01;13.20;82.40
16627;DHT22;8427;52.204;7.202;2023-11-19T13:09:32;13.30;82.30
16627;DHT22;8427;52.204;7.202;2023-11-19T13:12:12;13.20;82.00
16627;DHT22;8427;52.204;7.202;2023-11-19T13:14:40;13.10;82.50
16627;DHT22;8427;52.204;7.202;2023-11-19T13:17:13;13.10;82.30
16627;DHT22;8427;52.204;7.202;2023-11-19T13:19:41;13.00;82.70
16627;DHT22;8427;52.204;7.202;2023-11-19T13:22:09;12.90;83.30
16627;DHT22;8427;52.204;7.202;2023-11-19T13:24:37;12.90;83.80
16627;DHT22;8427;52.204;7.202;2023-11-19T13:27:08;12.70;84.00
16627;DHT22;8427;52.204;7.202;2023-11-19T13:29:36;12.70;84.40
16627;DHT22;8427;52.204;7.202;2023-11-19T13:32:04;12.70;85.10
16627;DHT22;8427;52.204;7.202;2023-11-19T13:34:33;12.60;85.60
16627;DHT22;8427;52.204;7.202;2023-11-19T13:37:01;12.60;85.90
16627;DHT22;8427;52.204;7.202;2023-11-19T13:39:29;12.50;86.00
16627;DHT22;8427;52.204;7.202;2023-11-19T13:41:57;12.50;86.30
16627;DHT22;8427;52.204;7.202;2023-11-19T13:44:31;12.50;86.40
16627;DHT22;8427;52.204;7.202;2023-11-19T13:46:59;12.40;86.20
16627;DHT22;8427;52.204;7.202;2023-11-19T13:49:26;12.30;86.70
16627;DHT22;8427;52.204;7.202;2023-11-19T13:51:55;12.40;87.00
16627;DHT22;8427;52.204;7.202;2023-11-19T13:54:23;12.50;87.00
16627;DHT22;8427;52.204;7.202;2023-11-19T13:56:54;12.50;86.90
16627;DHT22;8427;52.204;7.202;2023-11-19T13:59:24;12.60;86.20
16627;DHT22;8427;52.204;7.202;2023-11-19T14:01:54;12.70;86.00
16627;DHT22;8427;52.204;7.202;2023-11-19T14:04:22;12.70;85.40
16627;DHT22;8427;52.204;7.202;2023-11-19T14:06:50;12.80;84.90
16627;DHT22;8427;52.204;7.202;2023-11-19T14:09:19;12.70;84.30
16627;DHT22;8427;52.204;7.202;2023-11-19T14:11:47;12.70;84.20
16627;DHT22;8427;52.204;7.202;2023-11-19T14:14:17;12.50;84.80
16627;DHT22;8427;52.204;7.202;2023-11-19T14:16:45;12.50;85.40
16627;DHT22;8427;52.204;7.202;2023-11-19T14:19:16;12.30;85.90
16627;DHT22;8427;52.204;7.202;2023-11-19T14:21:43;12.30;86.20
16627;DHT22;8427;52.204;7.202;2023-11-19T14:24:12;12.20;86.50
16627;DHT22;8427;52.204;7.202;2023-11-19T14:26:40;12.40;87.20
16627;DHT22;8427;52.204;7.202;2023-11-19T14:29:08;12.40;86.40
16627;DHT22;8427;52.204;7.202;2023-11-19T14:31:36;12.30;86.30
16627;DHT22;8427;52.204;7.202;2023-11-19T14:34:04;12.40;85.90
16627;DHT22;8427;52.204;7.202;2023-11-19T14:36:33;12.30;85.70
16627;DHT22;8427;52.204;7.202;2023-11-19T14:39:02;12.50;85.40
16627;DHT22;8427;52.204;7.202;2023-11-19T14:41:30;12.40;85.30
16627;DHT22;8427;52.204;7.202;2023-11-19T14:43:58;12.40;85.20
16627;DHT22;8427;52.204;7.202;2023-11-19T14:46:27;12.30;84.90
16627;DHT22;8427;52.204;7.202;2023-11-19T14:48:55;12.50;84.70
16627;DHT22;8427;52.204;7.202;2023-11-19T14:51:23;12.50;84.30
16627;DHT22;8427;52.204;7.202;2023-11-19T14:53:53;12.60;84.50
16627;DHT22;8427;52.204;7.202;2023-11-19T14:56:22;12.50;84.50
16627;DHT22;8427;52.204;7.202;2023-11-19T14:58:50;12.30;84.90
16627;DHT22;8427;52.204;7.202;2023-11-19T15:01:18;12.20;85.00
16627;DHT22;8427;52.204;7.202;2023-11-19T15:03:46;12.30;85.00
16627;DHT22;8427;52.204;7.202;2023-11-19T15:06:17;12.30;84.90
16627;DHT22;8427;52.204;7.202;2023-11-19T15:08:45;12.40;84.70
16627;DHT22;8427;52.204;7.202;2023-11-19T15:11:15;12.30;84.60
16627;DHT22;8427;52.204;7.202;2023-11-19T15:13:43;12.30;84.70
16627;DHT22;8427;52.204;7.202;2023-11-19T15:16:10;12.00;85.70
16627;DHT22;8427;52.204;7.202;2023-11-19T15:18:40;11.90;86.80
16627;DHT22;8427;52.204;7.202;2023-11-19T15:21:08;11.70;87.80
16627;DHT22;8427;52.204;7.202;2023-11-19T15:23:38;11.60;88.70
16627;DHT22;8427;52.204;7.202;2023-11-19T15:26:07;11.50;89.20
16627;DHT22;8427;52.204;7.202;2023-11-19T15:28:38;11.40;89.50
16627;DHT22;8427;52.204;7.202;2023-11-19T15:31:06;11.30;89.60
16627;DHT22;8427;52.204;7.202;2023-11-19T15:33:34;11.30;90.00
16627;DHT22;8427;52.204;7.202;2023-11-19T15:36:02;11.30;90.10
16627;DHT22;8427;52.204;7.202;2023-11-19T15:38:34;11.20;90.40
16627;DHT22;8427;52.204;7.202;2023-11-19T15:41:19;11.30;90.60
16627;DHT22;8427;52.204;7.202;2023-11-19T15:43:48;11.20;90.70
16627;DHT22;8427;52.204;7.202;2023-11-19T15:46:16;11.20;90.70
16627;DHT22;8427;52.204;7.202;2023-11-19T15:48:44;11.20;90.50
16627;DHT22;8427;52.204;7.202;2023-11-19T15:51:12;11.20;90.70
16627;DHT22;8427;52.204;7.202;2023-11-19T15:53:40;11.20;90.80
16627;DHT22;8427;52.204;7.202;2023-11-19T15:56:09;11.20;90.50
16627;DHT22;8427;52.204;7.202;2023-11-19T15:58:37;11.20;90.40
16627;DHT22;8427;52.204;7.202;2023-11-19T16:01:07;11.10;90.40
16627;DHT22;8427;52.204;7.202;2023-11-19T16:03:36;11.20;90.20
16627;DHT22;8427;52.204;7.202;2023-11-19T16:06:07;11.20;90.30
16627;DHT22;8427;52.204;7.202;2023-11-19T16:08:37;11.20;90.10